KEKX

Addington Field Airport

Elizabethtown, Kentucky, USA
METAR KEKX 210355Z AUTO 17006KT 10SM SCT046 SCT050 24/23 A2988 RMK AO2 LTG DSNT W P0001 T02360232
Observed Flight Rules
Aug-21 @ 03:55 UTC (14 minutes ago) Visual Flight Rules
Wind Visibility Clouds
170° at 6 knots 10 miles
  • Scattered at 4,600' AGL
  • Scattered at 5,000' AGL
Temperatures Readings Precipitation
Current 24°C / 75°F
Dewpoint 23°C / 73°F
Humidity 94%
Altimeter 29.88" Hg
Pressure 1012 hPa
Current Rain 0.01
METAR KEKX 210355Z AUTO 17006KT 10SM SCT046 SCT050 24/23 A2988 RMK AO2 LTG DSNT W P0001 T02360232
Observed Flight Rules
Aug-21 @ 03:55 UTC
(14 minutes ago)
VFR
Wind Visibility
170° at 6 knots 10 miles
Clouds
  • Scattered at 4,600' AGL
  • Scattered at 5,000' AGL
Temperature Dewpoint
24°C / 75°F 23°C / 73°F
Humidity Altimeter Pressure
94% 29.88" Hg 1012 hPa
Current Rain
0.01